sensor_id;sensor_type;location;lat;lon;timestamp;P1;durP1;ratioP1;P2;durP2;ratioP2
325;SDS011;150;52.352;14.058;2023-02-01T00:00:48;5.72;;;2.20;;
325;SDS011;150;52.352;14.058;2023-02-01T00:03:15;11.65;;;2.65;;
325;SDS011;150;52.352;14.058;2023-02-01T00:05:43;4.25;;;1.52;;
325;SDS011;150;52.352;14.058;2023-02-01T00:08:11;9.13;;;2.78;;
325;SDS011;150;52.352;14.058;2023-02-01T00:10:38;10.32;;;2.20;;
325;SDS011;150;52.352;14.058;2023-02-01T00:13:04;12.93;;;2.67;;
325;SDS011;150;52.352;14.058;2023-02-01T00:15:31;6.33;;;2.53;;
325;SDS011;150;52.352;14.058;2023-02-01T00:17:58;7.22;;;1.95;;
325;SDS011;150;52.352;14.058;2023-02-01T00:20:25;5.13;;;2.20;;
325;SDS011;150;52.352;14.058;2023-02-01T00:22:52;10.05;;;2.15;;
325;SDS011;150;52.352;14.058;2023-02-01T00:25:19;8.23;;;2.17;;
325;SDS011;150;52.352;14.058;2023-02-01T00:27:48;14.57;;;3.78;;
325;SDS011;150;52.352;14.058;2023-02-01T00:30:15;9.90;;;2.42;;
325;SDS011;150;52.352;14.058;2023-02-01T00:32:42;6.13;;;2.35;;
325;SDS011;150;52.352;14.058;2023-02-01T00:35:09;9.02;;;2.35;;
325;SDS011;150;52.352;14.058;2023-02-01T00:37:35;7.25;;;3.00;;
325;SDS011;150;52.352;14.058;2023-02-01T00:40:02;9.13;;;2.75;;
325;SDS011;150;52.352;14.058;2023-02-01T00:42:30;10.48;;;2.97;;
325;SDS011;150;52.352;14.058;2023-02-01T00:44:57;9.55;;;3.42;;
325;SDS011;150;52.352;14.058;2023-02-01T00:47:24;7.18;;;2.20;;
325;SDS011;150;52.352;14.058;2023-02-01T00:49:51;11.50;;;2.60;;
325;SDS011;150;52.352;14.058;2023-02-01T00:52:18;10.20;;;2.25;;
325;SDS011;150;52.352;14.058;2023-02-01T00:54:44;15.32;;;2.88;;
325;SDS011;150;52.352;14.058;2023-02-01T00:57:11;9.38;;;2.30;;
325;SDS011;150;52.352;14.058;2023-02-01T00:59:39;9.40;;;2.97;;
325;SDS011;150;52.352;14.058;2023-02-01T01:02:06;10.23;;;2.53;;
325;SDS011;150;52.352;14.058;2023-02-01T01:04:35;14.18;;;2.63;;
325;SDS011;150;52.352;14.058;2023-02-01T01:07:02;3.45;;;1.80;;
325;SDS011;150;52.352;14.058;2023-02-01T01:09:30;13.63;;;2.50;;
325;SDS011;150;52.352;14.058;2023-02-01T01:11:57;17.73;;;3.65;;
325;SDS011;150;52.352;14.058;2023-02-01T01:14:27;8.88;;;2.63;;
325;SDS011;150;52.352;14.058;2023-02-01T01:16:55;3.65;;;1.80;;
325;SDS011;150;52.352;14.058;2023-02-01T01:19:22;9.65;;;2.67;;
325;SDS011;150;52.352;14.058;2023-02-01T01:21:49;8.50;;;2.80;;
325;SDS011;150;52.352;14.058;2023-02-01T01:24:16;9.65;;;2.90;;
325;SDS011;150;52.352;14.058;2023-02-01T01:26:45;6.32;;;2.17;;
325;SDS011;150;52.352;14.058;2023-02-01T01:29:12;6.57;;;1.83;;
325;SDS011;150;52.352;14.058;2023-02-01T01:31:38;8.18;;;2.28;;
325;SDS011;150;52.352;14.058;2023-02-01T01:34:06;8.82;;;2.25;;
325;SDS011;150;52.352;14.058;2023-02-01T01:36:36;9.55;;;2.88;;
325;SDS011;150;52.352;14.058;2023-02-01T01:39:02;15.43;;;2.20;;
325;SDS011;150;52.352;14.058;2023-02-01T01:41:31;6.28;;;1.77;;
325;SDS011;150;52.352;14.058;2023-02-01T01:43:59;5.68;;;1.95;;
325;SDS011;150;52.352;14.058;2023-02-01T01:46:27;5.13;;;1.65;;
325;SDS011;150;52.352;14.058;2023-02-01T01:48:56;13.55;;;3.13;;
325;SDS011;150;52.352;14.058;2023-02-01T01:51:32;6.30;;;1.52;;
325;SDS011;150;52.352;14.058;2023-02-01T01:54:05;7.55;;;2.22;;
325;SDS011;150;52.352;14.058;2023-02-01T01:56:38;9.13;;;2.70;;
325;SDS011;150;52.352;14.058;2023-02-01T01:59:06;8.15;;;1.75;;
325;SDS011;150;52.352;14.058;2023-02-01T02:01:33;4.37;;;1.40;;
325;SDS011;150;52.352;14.058;2023-02-01T02:04:01;18.40;;;3.45;;
325;SDS011;150;52.352;14.058;2023-02-01T02:12:23;8.20;;;2.50;;
325;SDS011;150;52.352;14.058;2023-02-01T02:15:21;4.57;;;1.15;;
325;SDS011;150;52.352;14.058;2023-02-01T02:18:01;6.25;;;2.30;;
325;SDS011;150;52.352;14.058;2023-02-01T02:33:50;5.68;;;2.30;;
325;SDS011;150;52.352;14.058;2023-02-01T02:36:38;9.93;;;2.45;;
325;SDS011;150;52.352;14.058;2023-02-01T02:39:32;6.80;;;2.35;;
325;SDS011;150;52.352;14.058;2023-02-01T02:42:49;7.18;;;1.65;;
325;SDS011;150;52.352;14.058;2023-02-01T02:45:59;5.68;;;1.75;;
325;SDS011;150;52.352;14.058;2023-02-01T02:49:20;3.83;;;2.08;;
325;SDS011;150;52.352;14.058;2023-02-01T02:52:04;6.95;;;1.73;;
325;SDS011;150;52.352;14.058;2023-02-01T02:54:57;14.20;;;2.80;;
325;SDS011;150;52.352;14.058;2023-02-01T02:57:51;5.38;;;2.10;;
325;SDS011;150;52.352;14.058;2023-02-01T03:01:04;6.47;;;2.03;;
325;SDS011;150;52.352;14.058;2023-02-01T03:04:00;10.23;;;2.30;;
325;SDS011;150;52.352;14.058;2023-02-01T03:06:45;6.57;;;1.70;;
325;SDS011;150;52.352;14.058;2023-02-01T03:12:36;9.00;;;1.80;;
325;SDS011;150;52.352;14.058;2023-02-01T03:15:35;4.30;;;1.60;;
325;SDS011;150;52.352;14.058;2023-02-01T03:18:32;5.90;;;1.80;;
325;SDS011;150;52.352;14.058;2023-02-01T03:21:24;5.80;;;2.20;;
325;SDS011;150;52.352;14.058;2023-02-01T03:23:56;11.38;;;2.35;;
325;SDS011;150;52.352;14.058;2023-02-01T03:26:50;9.30;;;2.30;;
325;SDS011;150;52.352;14.058;2023-02-01T03:29:47;9.13;;;2.50;;
325;SDS011;150;52.352;14.058;2023-02-01T03:32:27;6.82;;;2.10;;
325;SDS011;150;52.352;14.058;2023-02-01T03:35:25;12.50;;;1.75;;
325;SDS011;150;52.352;14.058;2023-02-01T03:38:04;10.50;;;2.50;;
325;SDS011;150;52.352;14.058;2023-02-01T03:41:03;7.45;;;2.40;;
325;SDS011;150;52.352;14.058;2023-02-01T03:43:43;3.47;;;1.92;;
325;SDS011;150;52.352;14.058;2023-02-01T03:46:32;6.63;;;2.53;;
325;SDS011;150;52.352;14.058;2023-02-01T03:49:16;6.72;;;1.70;;
325;SDS011;150;52.352;14.058;2023-02-01T03:52:08;9.15;;;1.98;;
325;SDS011;150;52.352;14.058;2023-02-01T03:54:39;13.20;;;2.93;;
325;SDS011;150;52.352;14.058;2023-02-01T03:57:29;8.93;;;1.90;;
325;SDS011;150;52.352;14.058;2023-02-01T04:00:09;10.50;;;1.58;;
325;SDS011;150;52.352;14.058;2023-02-01T04:02:52;7.97;;;2.37;;
325;SDS011;150;52.352;14.058;2023-02-01T04:05:42;5.05;;;1.58;;
325;SDS011;150;52.352;14.058;2023-02-01T04:08:11;6.25;;;1.50;;
325;SDS011;150;52.352;14.058;2023-02-01T04:10:49;10.70;;;2.40;;
325;SDS011;150;52.352;14.058;2023-02-01T04:13:26;10.18;;;2.50;;
325;SDS011;150;52.352;14.058;2023-02-01T04:15:53;12.25;;;2.55;;
325;SDS011;150;52.352;14.058;2023-02-01T04:18:29;5.88;;;2.10;;
325;SDS011;150;52.352;14.058;2023-02-01T04:20:56;7.90;;;1.80;;
325;SDS011;150;52.352;14.058;2023-02-01T04:23:46;6.97;;;2.83;;
325;SDS011;150;52.352;14.058;2023-02-01T04:26:16;4.47;;;1.50;;
325;SDS011;150;52.352;14.058;2023-02-01T04:28:53;8.30;;;2.50;;
325;SDS011;150;52.352;14.058;2023-02-01T04:31:40;4.93;;;1.65;;
325;SDS011;150;52.352;14.058;2023-02-01T04:34:12;7.65;;;1.98;;
325;SDS011;150;52.352;14.058;2023-02-01T04:36:50;11.80;;;2.20;;
325;SDS011;150;52.352;14.058;2023-02-01T04:39:21;7.75;;;2.00;;
325;SDS011;150;52.352;14.058;2023-02-01T04:41:49;10.70;;;2.47;;
325;SDS011;150;52.352;14.058;2023-02-01T04:47:09;11.75;;;2.70;;
325;SDS011;150;52.352;14.058;2023-02-01T04:49:45;8.00;;;1.80;;
325;SDS011;150;52.352;14.058;2023-02-01T04:52:12;10.13;;;2.40;;
325;SDS011;150;52.352;14.058;2023-02-01T04:54:42;11.23;;;2.67;;
325;SDS011;150;52.352;14.058;2023-02-01T04:57:12;10.65;;;2.50;;
325;SDS011;150;52.352;14.058;2023-02-01T04:59:45;9.38;;;1.75;;
325;SDS011;150;52.352;14.058;2023-02-01T05:02:13;4.45;;;1.70;;
325;SDS011;150;52.352;14.058;2023-02-01T05:04:46;18.25;;;3.13;;
325;SDS011;150;52.352;14.058;2023-02-01T05:07:13;11.50;;;2.67;;
325;SDS011;150;52.352;14.058;2023-02-01T05:09:43;10.02;;;2.05;;
325;SDS011;150;52.352;14.058;2023-02-01T05:12:16;10.18;;;2.80;;
325;SDS011;150;52.352;14.058;2023-02-01T05:15:11;8.15;;;2.55;;
325;SDS011;150;52.352;14.058;2023-02-01T05:17:37;8.47;;;2.70;;
325;SDS011;150;52.352;14.058;2023-02-01T05:20:14;7.97;;;2.63;;
325;SDS011;150;52.352;14.058;2023-02-01T05:22:47;13.65;;;2.35;;
325;SDS011;150;52.352;14.058;2023-02-01T05:25:18;7.95;;;2.10;;
325;SDS011;150;52.352;14.058;2023-02-01T05:27:54;10.55;;;3.00;;
325;SDS011;150;52.352;14.058;2023-02-01T05:30:31;6.87;;;2.80;;
325;SDS011;150;52.352;14.058;2023-02-01T05:33:02;9.85;;;2.80;;
325;SDS011;150;52.352;14.058;2023-02-01T05:35:37;9.40;;;2.20;;
325;SDS011;150;52.352;14.058;2023-02-01T05:38:17;6.97;;;2.50;;
325;SDS011;150;52.352;14.058;2023-02-01T05:40:52;12.05;;;3.08;;
325;SDS011;150;52.352;14.058;2023-02-01T05:43:19;11.15;;;2.22;;
325;SDS011;150;52.352;14.058;2023-02-01T05:46:13;19.40;;;3.28;;
325;SDS011;150;52.352;14.058;2023-02-01T05:48:48;8.37;;;1.87;;
325;SDS011;150;52.352;14.058;2023-02-01T05:51:16;8.50;;;2.50;;
325;SDS011;150;52.352;14.058;2023-02-01T05:53:43;12.30;;;2.60;;
325;SDS011;150;52.352;14.058;2023-02-01T05:56:19;11.20;;;2.60;;
325;SDS011;150;52.352;14.058;2023-02-01T05:58:52;6.60;;;2.08;;
325;SDS011;150;52.352;14.058;2023-02-01T06:01:20;7.90;;;2.80;;
325;SDS011;150;52.352;14.058;2023-02-01T06:03:57;11.47;;;3.00;;
325;SDS011;150;52.352;14.058;2023-02-01T06:06:24;7.00;;;2.47;;
325;SDS011;150;52.352;14.058;2023-02-01T06:09:01;7.10;;;2.15;;
325;SDS011;150;52.352;14.058;2023-02-01T06:11:37;7.97;;;1.95;;
325;SDS011;150;52.352;14.058;2023-02-01T06:14:11;7.82;;;3.08;;
325;SDS011;150;52.352;14.058;2023-02-01T06:16:40;7.45;;;2.42;;
325;SDS011;150;52.352;14.058;2023-02-01T06:19:13;8.15;;;2.50;;
325;SDS011;150;52.352;14.058;2023-02-01T06:21:40;15.50;;;3.77;;
325;SDS011;150;52.352;14.058;2023-02-01T06:24:16;8.40;;;2.67;;
325;SDS011;150;52.352;14.058;2023-02-01T06:27:12;6.47;;;2.22;;
325;SDS011;150;52.352;14.058;2023-02-01T06:29:39;4.90;;;1.50;;
325;SDS011;150;52.352;14.058;2023-02-01T06:32:21;11.98;;;2.20;;
325;SDS011;150;52.352;14.058;2023-02-01T06:35:00;9.52;;;2.30;;
325;SDS011;150;52.352;14.058;2023-02-01T06:37:41;11.23;;;2.55;;
325;SDS011;150;52.352;14.058;2023-02-01T06:40:17;6.22;;;2.00;;
325;SDS011;150;52.352;14.058;2023-02-01T06:42:44;9.45;;;2.08;;
325;SDS011;150;52.352;14.058;2023-02-01T06:45:20;10.65;;;2.78;;
325;SDS011;150;52.352;14.058;2023-02-01T06:50:45;8.20;;;2.83;;
325;SDS011;150;52.352;14.058;2023-02-01T06:56:02;12.75;;;2.92;;
325;SDS011;150;52.352;14.058;2023-02-01T06:58:54;11.07;;;2.40;;
325;SDS011;150;52.352;14.058;2023-02-01T07:01:21;8.68;;;2.85;;
325;SDS011;150;52.352;14.058;2023-02-01T07:03:57;10.37;;;2.10;;
325;SDS011;150;52.352;14.058;2023-02-01T07:06:55;11.38;;;2.60;;
325;SDS011;150;52.352;14.058;2023-02-01T07:09:48;11.15;;;3.08;;
325;SDS011;150;52.352;14.058;2023-02-01T07:12:16;10.73;;;2.90;;
325;SDS011;150;52.352;14.058;2023-02-01T07:15:22;12.75;;;3.03;;
325;SDS011;150;52.352;14.058;2023-02-01T07:21:00;9.55;;;2.20;;
325;SDS011;150;52.352;14.058;2023-02-01T07:23:44;11.17;;;2.87;;
325;SDS011;150;52.352;14.058;2023-02-01T07:26:24;11.37;;;3.17;;
325;SDS011;150;52.352;14.058;2023-02-01T07:29:01;14.60;;;2.85;;
325;SDS011;150;52.352;14.058;2023-02-01T07:31:37;12.23;;;2.83;;
325;SDS011;150;52.352;14.058;2023-02-01T07:37:11;7.25;;;3.03;;
325;SDS011;150;52.352;14.058;2023-02-01T07:39:41;13.95;;;2.65;;
325;SDS011;150;52.352;14.058;2023-02-01T07:42:19;15.45;;;2.90;;
325;SDS011;150;52.352;14.058;2023-02-01T07:44:56;16.38;;;3.30;;
325;SDS011;150;52.352;14.058;2023-02-01T07:53:12;3.17;;;2.35;;
325;SDS011;150;52.352;14.058;2023-02-01T07:55:42;7.25;;;2.50;;
325;SDS011;150;52.352;14.058;2023-02-01T07:58:18;7.68;;;2.30;;
325;SDS011;150;52.352;14.058;2023-02-01T08:01:11;10.25;;;2.88;;
325;SDS011;150;52.352;14.058;2023-02-01T08:04:12;10.15;;;2.90;;
325;SDS011;150;52.352;14.058;2023-02-01T08:07:04;10.13;;;3.23;;
325;SDS011;150;52.352;14.058;2023-02-01T08:13:00;5.72;;;3.42;;
325;SDS011;150;52.352;14.058;2023-02-01T08:20:06;13.70;;;2.40;;
325;SDS011;150;52.352;14.058;2023-02-01T08:25:46;7.07;;;2.67;;
325;SDS011;150;52.352;14.058;2023-02-01T08:30:01;8.88;;;2.70;;
325;SDS011;150;52.352;14.058;2023-02-01T08:32:51;9.82;;;3.22;;
325;SDS011;150;52.352;14.058;2023-02-01T08:35:31;9.13;;;3.42;;
325;SDS011;150;52.352;14.058;2023-02-01T08:38:07;7.65;;;3.17;;
325;SDS011;150;52.352;14.058;2023-02-01T08:40:34;7.03;;;2.73;;
325;SDS011;150;52.352;14.058;2023-02-01T08:43:14;9.68;;;3.20;;
325;SDS011;150;52.352;14.058;2023-02-01T08:45:51;6.65;;;2.90;;
325;SDS011;150;52.352;14.058;2023-02-01T08:48:33;6.45;;;2.63;;
325;SDS011;150;52.352;14.058;2023-02-01T08:54:03;7.18;;;2.92;;
325;SDS011;150;52.352;14.058;2023-02-01T08:56:30;6.40;;;2.53;;
325;SDS011;150;52.352;14.058;2023-02-01T08:59:03;5.28;;;2.28;;
325;SDS011;150;52.352;14.058;2023-02-01T09:01:31;6.80;;;3.28;;
325;SDS011;150;52.352;14.058;2023-02-01T09:04:06;6.30;;;2.58;;
325;SDS011;150;52.352;14.058;2023-02-01T09:06:45;10.48;;;2.97;;
325;SDS011;150;52.352;14.058;2023-02-01T09:09:11;3.60;;;2.00;;
325;SDS011;150;52.352;14.058;2023-02-01T09:11:49;5.50;;;2.03;;
325;SDS011;150;52.352;14.058;2023-02-01T09:24:29;6.00;;;2.60;;
325;SDS011;150;52.352;14.058;2023-02-01T09:30:12;7.00;;;2.08;;
325;SDS011;150;52.352;14.058;2023-02-01T09:32:48;5.72;;;2.20;;
325;SDS011;150;52.352;14.058;2023-02-01T09:35:27;7.50;;;2.08;;
325;SDS011;150;52.352;14.058;2023-02-01T09:38:09;3.47;;;2.10;;
325;SDS011;150;52.352;14.058;2023-02-01T09:44:02;3.88;;;1.50;;
325;SDS011;150;52.352;14.058;2023-02-01T09:46:43;7.93;;;2.17;;
325;SDS011;150;52.352;14.058;2023-02-01T09:49:22;2.50;;;0.93;;
325;SDS011;150;52.352;14.058;2023-02-01T09:55:35;2.50;;;1.20;;
325;SDS011;150;52.352;14.058;2023-02-01T09:58:29;2.03;;;1.30;;
325;SDS011;150;52.352;14.058;2023-02-01T10:01:41;2.20;;;1.13;;
325;SDS011;150;52.352;14.058;2023-02-01T10:04:09;5.57;;;1.83;;
325;SDS011;150;52.352;14.058;2023-02-01T10:07:05;5.90;;;1.40;;
325;SDS011;150;52.352;14.058;2023-02-01T10:10:16;2.60;;;1.10;;
325;SDS011;150;52.352;14.058;2023-02-01T10:13:17;3.00;;;2.03;;
325;SDS011;150;52.352;14.058;2023-02-01T10:16:20;3.00;;;1.10;;
325;SDS011;150;52.352;14.058;2023-02-01T10:19:31;5.70;;;1.45;;
325;SDS011;150;52.352;14.058;2023-02-01T10:23:00;5.55;;;2.33;;
325;SDS011;150;52.352;14.058;2023-02-01T10:29:11;2.80;;;1.10;;
325;SDS011;150;52.352;14.058;2023-02-01T10:32:30;4.13;;;1.13;;
325;SDS011;150;52.352;14.058;2023-02-01T10:35:31;1.10;;;0.80;;
325;SDS011;150;52.352;14.058;2023-02-01T10:38:08;4.63;;;1.30;;
325;SDS011;150;52.352;14.058;2023-02-01T10:40:44;1.00;;;0.60;;
325;SDS011;150;52.352;14.058;2023-02-01T10:43:22;3.78;;;1.55;;
325;SDS011;150;52.352;14.058;2023-02-01T10:46:02;2.45;;;0.80;;
325;SDS011;150;52.352;14.058;2023-02-01T10:48:45;3.65;;;1.50;;
325;SDS011;150;52.352;14.058;2023-02-01T11:05:02;2.60;;;1.10;;
325;SDS011;150;52.352;14.058;2023-02-01T11:05:33;3.35;;;1.10;;
325;SDS011;150;52.352;14.058;2023-02-01T11:11:10;2.58;;;0.90;;
325;SDS011;150;52.352;14.058;2023-02-01T12:01:55;1.70;;;0.70;;
325;SDS011;150;52.352;14.058;2023-02-01T12:21:42;3.42;;;1.30;;
325;SDS011;150;52.352;14.058;2023-02-01T12:54:44;2.28;;;1.27;;
325;SDS011;150;52.352;14.058;2023-02-01T13:43:51;3.20;;;1.58;;
325;SDS011;150;52.352;14.058;2023-02-01T14:07:44;0.90;;;0.50;;
325;SDS011;150;52.352;14.058;2023-02-01T14:10:59;0.90;;;0.40;;
325;SDS011;150;52.352;14.058;2023-02-01T14:13:27;1.10;;;0.40;;
325;SDS011;150;52.352;14.058;2023-02-01T14:16:19;1.40;;;0.50;;
325;SDS011;150;52.352;14.058;2023-02-01T14:18:58;1.00;;;0.43;;
325;SDS011;150;52.352;14.058;2023-02-01T14:21:55;0.95;;;0.50;;
325;SDS011;150;52.352;14.058;2023-02-01T14:24:38;3.58;;;0.90;;
325;SDS011;150;52.352;14.058;2023-02-01T14:27:22;3.50;;;0.93;;
325;SDS011;150;52.352;14.058;2023-02-01T14:29:59;8.70;;;1.40;;
325;SDS011;150;52.352;14.058;2023-02-01T14:32:38;3.13;;;1.42;;
325;SDS011;150;52.352;14.058;2023-02-01T14:35:17;3.92;;;1.10;;
325;SDS011;150;52.352;14.058;2023-02-01T14:37:58;9.97;;;1.50;;
325;SDS011;150;52.352;14.058;2023-02-01T14:40:36;2.53;;;0.85;;
325;SDS011;150;52.352;14.058;2023-02-01T14:43:02;4.68;;;1.70;;
325;SDS011;150;52.352;14.058;2023-02-01T14:45:50;6.35;;;2.00;;
325;SDS011;150;52.352;14.058;2023-02-01T14:51:13;6.65;;;2.22;;
325;SDS011;150;52.352;14.058;2023-02-01T14:53:45;7.60;;;2.38;;
325;SDS011;150;52.352;14.058;2023-02-01T14:56:17;4.10;;;1.17;;
325;SDS011;150;52.352;14.058;2023-02-01T14:58:55;3.65;;;1.80;;
325;SDS011;150;52.352;14.058;2023-02-01T15:01:38;4.15;;;1.70;;
325;SDS011;150;52.352;14.058;2023-02-01T15:04:17;6.00;;;1.90;;
325;SDS011;150;52.352;14.058;2023-02-01T15:10:07;4.68;;;2.58;;
325;SDS011;150;52.352;14.058;2023-02-01T15:12:51;8.33;;;2.07;;
325;SDS011;150;52.352;14.058;2023-02-01T15:15:31;5.72;;;1.40;;
325;SDS011;150;52.352;14.058;2023-02-01T15:24:56;4.80;;;1.80;;
325;SDS011;150;52.352;14.058;2023-02-01T15:27:56;7.20;;;3.10;;
325;SDS011;150;52.352;14.058;2023-02-01T15:33:34;5.82;;;1.90;;
325;SDS011;150;52.352;14.058;2023-02-01T15:36:30;3.80;;;2.37;;
325;SDS011;150;52.352;14.058;2023-02-01T15:39:26;6.65;;;2.50;;
325;SDS011;150;52.352;14.058;2023-02-01T15:42:20;6.60;;;2.27;;
325;SDS011;150;52.352;14.058;2023-02-01T15:47:58;6.18;;;1.90;;
325;SDS011;150;52.352;14.058;2023-02-01T15:50:54;3.70;;;1.53;;
325;SDS011;150;52.352;14.058;2023-02-01T15:53:29;3.00;;;1.02;;
325;SDS011;150;52.352;14.058;2023-02-01T15:56:13;4.30;;;1.27;;
325;SDS011;150;52.352;14.058;2023-02-01T15:58:52;2.28;;;1.08;;
325;SDS011;150;52.352;14.058;2023-02-01T16:01:37;3.00;;;0.90;;
325;SDS011;150;52.352;14.058;2023-02-01T16:04:27;3.95;;;1.20;;
325;SDS011;150;52.352;14.058;2023-02-01T16:07:06;3.80;;;1.10;;
325;SDS011;150;52.352;14.058;2023-02-01T16:09:54;1.98;;;1.10;;
325;SDS011;150;52.352;14.058;2023-02-01T16:12:46;1.50;;;0.80;;
325;SDS011;150;52.352;14.058;2023-02-01T16:15:22;1.98;;;1.23;;
325;SDS011;150;52.352;14.058;2023-02-01T16:17:49;1.50;;;1.00;;
325;SDS011;150;52.352;14.058;2023-02-01T16:20:22;5.53;;;1.23;;
325;SDS011;150;52.352;14.058;2023-02-01T16:22:50;2.60;;;1.30;;
325;SDS011;150;52.352;14.058;2023-02-01T16:25:45;2.05;;;1.20;;
325;SDS011;150;52.352;14.058;2023-02-01T16:28:12;1.80;;;1.05;;
325;SDS011;150;52.352;14.058;2023-02-01T16:30:48;2.30;;;1.00;;
325;SDS011;150;52.352;14.058;2023-02-01T16:33:24;1.73;;;1.20;;
325;SDS011;150;52.352;14.058;2023-02-01T16:35:51;1.73;;;0.80;;
325;SDS011;150;52.352;14.058;2023-02-01T16:38:30;3.10;;;1.20;;
325;SDS011;150;52.352;14.058;2023-02-01T16:41:11;2.90;;;1.10;;
325;SDS011;150;52.352;14.058;2023-02-01T16:44:06;1.05;;;0.68;;
325;SDS011;150;52.352;14.058;2023-02-01T16:46:44;3.00;;;0.80;;
325;SDS011;150;52.352;14.058;2023-02-01T16:49:22;1.83;;;1.40;;
325;SDS011;150;52.352;14.058;2023-02-01T16:51:54;1.20;;;0.70;;
325;SDS011;150;52.352;14.058;2023-02-01T16:54:36;1.33;;;0.47;;
325;SDS011;150;52.352;14.058;2023-02-01T16:57:04;1.40;;;0.60;;
325;SDS011;150;52.352;14.058;2023-02-01T16:59:41;1.20;;;0.50;;
325;SDS011;150;52.352;14.058;2023-02-01T17:02:10;0.90;;;0.50;;
325;SDS011;150;52.352;14.058;2023-02-01T17:05:16;1.05;;;0.60;;
325;SDS011;150;52.352;14.058;2023-02-01T17:07:43;1.20;;;0.50;;
325;SDS011;150;52.352;14.058;2023-02-01T17:10:36;2.30;;;0.70;;
325;SDS011;150;52.352;14.058;2023-02-01T17:13:03;0.90;;;0.50;;
325;SDS011;150;52.352;14.058;2023-02-01T17:15:45;1.05;;;0.60;;
325;SDS011;150;52.352;14.058;2023-02-01T17:21:38;1.20;;;0.60;;
325;SDS011;150;52.352;14.058;2023-02-01T17:24:50;1.60;;;0.70;;
325;SDS011;150;52.352;14.058;2023-02-01T17:30:28;1.45;;;1.00;;
325;SDS011;150;52.352;14.058;2023-02-01T17:33:39;1.15;;;0.75;;
325;SDS011;150;52.352;14.058;2023-02-01T17:36:08;1.10;;;0.65;;
325;SDS011;150;52.352;14.058;2023-02-01T17:39:04;0.90;;;0.50;;
325;SDS011;150;52.352;14.058;2023-02-01T17:48:10;1.42;;;0.82;;
325;SDS011;150;52.352;14.058;2023-02-01T17:50:51;1.65;;;0.93;;
325;SDS011;150;52.352;14.058;2023-02-01T17:53:32;1.30;;;0.60;;
325;SDS011;150;52.352;14.058;2023-02-01T17:56:45;3.60;;;1.20;;
325;SDS011;150;52.352;14.058;2023-02-01T17:59:24;1.30;;;0.80;;
325;SDS011;150;52.352;14.058;2023-02-01T18:02:02;1.60;;;0.80;;
325;SDS011;150;52.352;14.058;2023-02-01T18:04:40;1.25;;;0.73;;
325;SDS011;150;52.352;14.058;2023-02-01T18:07:41;1.10;;;0.80;;
325;SDS011;150;52.352;14.058;2023-02-01T18:13:53;1.90;;;0.60;;
325;SDS011;150;52.352;14.058;2023-02-01T18:16:29;1.90;;;0.80;;
325;SDS011;150;52.352;14.058;2023-02-01T18:25:07;3.47;;;0.80;;
325;SDS011;150;52.352;14.058;2023-02-01T18:28:15;3.50;;;1.10;;
325;SDS011;150;52.352;14.058;2023-02-01T18:31:01;6.85;;;1.20;;
325;SDS011;150;52.352;14.058;2023-02-01T18:33:55;2.53;;;1.00;;
325;SDS011;150;52.352;14.058;2023-02-01T18:36:32;4.70;;;1.30;;
325;SDS011;150;52.352;14.058;2023-02-01T18:39:01;1.85;;;0.93;;
325;SDS011;150;52.352;14.058;2023-02-01T18:41:34;1.20;;;0.80;;
325;SDS011;150;52.352;14.058;2023-02-01T18:44:14;3.67;;;1.25;;
325;SDS011;150;52.352;14.058;2023-02-01T18:46:53;2.40;;;0.90;;
325;SDS011;150;52.352;14.058;2023-02-01T18:49:34;2.05;;;1.15;;
325;SDS011;150;52.352;14.058;2023-02-01T18:52:11;3.70;;;1.30;;
325;SDS011;150;52.352;14.058;2023-02-01T18:54:55;5.80;;;0.70;;
325;SDS011;150;52.352;14.058;2023-02-01T18:57:35;3.60;;;1.10;;
325;SDS011;150;52.352;14.058;2023-02-01T19:00:10;1.80;;;1.20;;
325;SDS011;150;52.352;14.058;2023-02-01T19:02:37;3.47;;;1.50;;
325;SDS011;150;52.352;14.058;2023-02-01T19:08:10;1.35;;;0.90;;
325;SDS011;150;52.352;14.058;2023-02-01T19:13:35;2.83;;;1.10;;
325;SDS011;150;52.352;14.058;2023-02-01T19:19:21;4.55;;;1.50;;
325;SDS011;150;52.352;14.058;2023-02-01T19:21:54;2.65;;;1.10;;
325;SDS011;150;52.352;14.058;2023-02-01T19:24:31;4.72;;;1.45;;
325;SDS011;150;52.352;14.058;2023-02-01T19:32:44;5.60;;;1.80;;
325;SDS011;150;52.352;14.058;2023-02-01T19:35:45;5.15;;;1.23;;
325;SDS011;150;52.352;14.058;2023-02-01T19:38:40;2.10;;;1.20;;
325;SDS011;150;52.352;14.058;2023-02-01T19:41:41;2.60;;;1.00;;
325;SDS011;150;52.352;14.058;2023-02-01T19:44:51;3.45;;;1.13;;
325;SDS011;150;52.352;14.058;2023-02-01T19:47:27;8.13;;;1.70;;
325;SDS011;150;52.352;14.058;2023-02-01T19:49:59;4.18;;;1.40;;
325;SDS011;150;52.352;14.058;2023-02-01T19:52:45;3.75;;;1.60;;
325;SDS011;150;52.352;14.058;2023-02-01T19:58:30;9.13;;;1.57;;
325;SDS011;150;52.352;14.058;2023-02-01T20:01:26;3.70;;;1.53;;
325;SDS011;150;52.352;14.058;2023-02-01T20:04:19;2.88;;;1.42;;
325;SDS011;150;52.352;14.058;2023-02-01T20:07:04;6.53;;;1.98;;
325;SDS011;150;52.352;14.058;2023-02-01T20:09:45;7.00;;;1.55;;
325;SDS011;150;52.352;14.058;2023-02-01T20:12:12;3.42;;;1.73;;
325;SDS011;150;52.352;14.058;2023-02-01T20:14:40;3.25;;;1.75;;
325;SDS011;150;52.352;14.058;2023-02-01T20:17:07;5.28;;;1.30;;
325;SDS011;150;52.352;14.058;2023-02-01T20:19:39;2.60;;;1.30;;
325;SDS011;150;52.352;14.058;2023-02-01T20:22:13;3.75;;;1.38;;
325;SDS011;150;52.352;14.058;2023-02-01T20:24:44;2.47;;;1.55;;
325;SDS011;150;52.352;14.058;2023-02-01T20:27:32;3.42;;;0.90;;
325;SDS011;150;52.352;14.058;2023-02-01T20:30:03;4.30;;;1.25;;
325;SDS011;150;52.352;14.058;2023-02-01T20:32:32;7.40;;;1.35;;
325;SDS011;150;52.352;14.058;2023-02-01T20:34:58;3.50;;;1.20;;
325;SDS011;150;52.352;14.058;2023-02-01T20:37:28;2.92;;;1.20;;
325;SDS011;150;52.352;14.058;2023-02-01T20:39:55;7.45;;;1.48;;
325;SDS011;150;52.352;14.058;2023-02-01T20:42:42;7.32;;;1.80;;
325;SDS011;150;52.352;14.058;2023-02-01T20:45:15;6.20;;;1.20;;
325;SDS011;150;52.352;14.058;2023-02-01T20:47:47;6.43;;;1.50;;
325;SDS011;150;52.352;14.058;2023-02-01T20:50:20;4.90;;;1.70;;
325;SDS011;150;52.352;14.058;2023-02-01T20:52:49;2.65;;;1.45;;
325;SDS011;150;52.352;14.058;2023-02-01T20:55:27;4.07;;;1.45;;
325;SDS011;150;52.352;14.058;2023-02-01T20:57:55;4.97;;;1.20;;
325;SDS011;150;52.352;14.058;2023-02-01T21:00:27;5.13;;;1.77;;
325;SDS011;150;52.352;14.058;2023-02-01T21:03:05;6.53;;;1.50;;
325;SDS011;150;52.352;14.058;2023-02-01T21:05:32;3.87;;;1.30;;
325;SDS011;150;52.352;14.058;2023-02-01T21:08:09;2.55;;;1.45;;
325;SDS011;150;52.352;14.058;2023-02-01T21:10:42;2.72;;;1.38;;
325;SDS011;150;52.352;14.058;2023-02-01T21:13:23;4.97;;;2.00;;
325;SDS011;150;52.352;14.058;2023-02-01T21:15:52;5.72;;;1.65;;
325;SDS011;150;52.352;14.058;2023-02-01T21:18:21;2.80;;;0.93;;
325;SDS011;150;52.352;14.058;2023-02-01T21:20:56;2.90;;;1.08;;
325;SDS011;150;52.352;14.058;2023-02-01T21:23:31;1.80;;;0.90;;
325;SDS011;150;52.352;14.058;2023-02-01T21:26:11;6.25;;;1.60;;
325;SDS011;150;52.352;14.058;2023-02-01T21:28:40;3.92;;;1.13;;
325;SDS011;150;52.352;14.058;2023-02-01T21:31:14;3.50;;;1.20;;
325;SDS011;150;52.352;14.058;2023-02-01T21:33:41;7.35;;;1.48;;
325;SDS011;150;52.352;14.058;2023-02-01T21:36:15;6.97;;;2.10;;
325;SDS011;150;52.352;14.058;2023-02-01T21:38:49;7.70;;;1.10;;
325;SDS011;150;52.352;14.058;2023-02-01T21:41:17;8.88;;;1.83;;
325;SDS011;150;52.352;14.058;2023-02-01T21:44:04;6.27;;;1.67;;
325;SDS011;150;52.352;14.058;2023-02-01T21:46:52;3.20;;;1.40;;
325;SDS011;150;52.352;14.058;2023-02-01T21:49:28;3.45;;;0.88;;
325;SDS011;150;52.352;14.058;2023-02-01T21:51:57;8.35;;;2.13;;
325;SDS011;150;52.352;14.058;2023-02-01T21:54:28;3.63;;;1.77;;
325;SDS011;150;52.352;14.058;2023-02-01T21:57:16;7.30;;;1.27;;